Time;durP1;ratioP1;P1;durP2;ratioP2;P2;SDS_P1;SDS_P2;PMS_P1;PMS_P2;Temp;Humidity;BMP_temperature;BMP_pressure;BME280_temperature;BME280_humidity;BME280_pressure;Samples;Min_cycle;Max_cycle;Signal;HPM_P1;HPM_P2
2021/05/12 04:58:09;;;;;;;2.20;1.45;;;;;;;9.79;76.53;100106.41;1793578;79;22537;-36
2021/05/12 05:00:36;;;;;;;2.08;1.87;;;;;;;9.84;76.08;100106.84;1745265;81;21082;-38
2021/05/12 05:03:04;;;;;;;1.90;1.72;;;;;;;9.94;75.77;100105.55;1730587;81;21078;-37
2021/05/12 05:05:30;;;;;;;2.45;1.70;;;;;;;10.02;74.76;100094.20;1753862;81;21208;-41
2021/05/12 05:07:58;;;;;;;1.67;1.57;;;;;;;10.11;74.59;100090.73;1752681;81;21399;-37
2021/05/12 05:10:32;;;;;;;2.02;1.82;;;;;;;10.26;74.44;100095.08;1740488;81;21161;-37
2021/05/12 05:13:06;;;;;;;2.92;2.25;;;;;;;10.43;73.91;100089.81;1710085;81;21101;-36
2021/05/12 05:15:33;;;;;;;2.80;2.10;;;;;;;10.60;73.07;100088.88;1748267;81;21169;-36
2021/05/12 05:18:00;;;;;;;1.70;1.60;;;;;;;10.74;72.11;100095.39;1740059;80;21066;-36
2021/05/12 05:20:28;;;;;;;2.08;1.52;;;;;;;10.81;71.36;100088.38;1716547;81;21555;-36
2021/05/12 05:22:57;;;;;;;2.95;1.80;;;;;;;10.89;71.00;100087.45;1742812;81;21092;-42
2021/05/12 05:25:24;;;;;;;3.95;1.72;;;;;;;11.01;70.60;100088.28;1743454;80;21723;-42
2021/05/12 05:32:06;;;;;;;2.75;1.90;;;;;;;11.12;69.05;100091.27;1712683;81;21692;-42
2021/05/12 05:44:13;;;;;;;5.37;2.17;;;;;;;11.29;68.22;100089.87;1740745;81;21572;-43
2021/05/12 05:51:25;;;;;;;2.35;2.15;;;;;;;11.62;66.61;100087.47;1717192;81;21773;-42
2021/05/12 05:54:22;;;;;;;2.22;1.92;;;;;;;11.77;65.96;100090.83;1722943;81;21426;-43
2021/05/12 05:57:20;;;;;;;4.47;2.20;;;;;;;11.91;65.21;100096.88;1679480;83;21489;-42
2021/05/12 06:00:13;;;;;;;3.05;2.27;;;;;;;12.12;64.33;100095.39;1719665;81;21450;-45
2021/05/12 06:02:49;;;;;;;2.67;2.20;;;;;;;12.37;63.75;100097.31;1709244;82;21096;-38
2021/05/12 06:05:34;;;;;;;5.50;2.50;;;;;;;12.47;61.79;100088.47;1738920;81;21093;-42
2021/05/12 06:08:21;;;;;;;3.62;2.45;;;;;;;12.55;61.41;100096.25;1735448;80;21073;-41
2021/05/12 06:11:09;;;;;;;4.80;2.30;;;;;;;12.57;60.89;100102.78;1721811;81;21128;-41
2021/05/12 06:13:58;;;;;;;2.42;2.22;;;;;;;12.56;60.72;100095.35;1718549;82;21494;-38
2021/05/12 06:16:48;;;;;;;2.70;2.05;;;;;;;12.56;60.70;100097.98;1731825;81;21103;-43
2021/05/12 06:20:20;;;;;;;4.75;2.75;;;;;;;12.52;60.57;100100.20;1728730;81;21031;-38
2021/05/12 06:27:05;;;;;;;5.85;2.65;;;;;;;12.76;60.89;100087.27;1733329;81;21149;-43
2021/05/12 06:38:57;;;;;;;3.60;2.33;;;;;;;12.95;59.36;100086.13;1740352;81;21001;-37
2021/05/12 06:48:50;;;;;;;2.25;2.05;;;;;;;12.88;59.30;100087.11;1709846;81;21656;-42
2021/05/12 06:51:16;;;;;;;2.30;1.90;;;;;;;12.78;58.94;100092.91;1707280;81;21570;-36
2021/05/12 06:53:43;;;;;;;2.77;2.22;;;;;;;12.71;59.33;100099.13;1733904;81;21356;-37
2021/05/12 06:56:10;;;;;;;1.95;1.85;;;;;;;12.59;59.17;100096.64;1735770;81;21148;-42
2021/05/12 06:58:40;;;;;;;2.30;2.10;;;;;;;12.44;59.70;100090.24;1710440;81;21531;-41
2021/05/12 07:01:06;;;;;;;4.58;2.25;;;;;;;12.34;60.07;100100.40;1740836;81;21174;-36
2021/05/12 07:03:32;;;;;;;4.37;2.42;;;;;;;12.27;60.56;100093.04;1739176;81;21592;-37
2021/05/12 07:06:01;;;;;;;3.47;2.20;;;;;;;12.20;60.94;100093.99;1741703;81;21602;-37
2021/05/12 07:08:28;;;;;;;2.92;2.40;;;;;;;12.13;61.08;100100.19;1741892;81;21065;-36
2021/05/12 07:10:55;;;;;;;3.92;2.37;;;;;;;12.03;61.09;100100.70;1716289;81;21118;-42
2021/05/12 07:13:24;;;;;;;4.92;2.40;;;;;;;11.93;60.90;100102.97;1715781;80;21170;-41
2021/05/12 07:15:52;;;;;;;1.92;1.75;;;;;;;11.84;61.18;100102.63;1691409;83;21108;-48
2021/05/12 07:18:19;;;;;;;2.55;2.00;;;;;;;11.81;61.75;100101.32;1687738;83;21068;-37
2021/05/12 07:20:45;;;;;;;2.30;1.95;;;;;;;11.85;62.11;100096.94;1665384;83;21565;-37
2021/05/12 07:23:23;;;;;;;4.28;2.05;;;;;;;11.93;62.46;100091.17;1685650;83;21698;-37
2021/05/12 07:25:50;;;;;;;2.92;2.50;;;;;;;11.99;61.63;100091.12;1662780;83;21125;-43
2021/05/12 07:28:16;;;;;;;2.83;2.17;;;;;;;11.98;60.79;100091.56;1708997;82;21740;-37
2021/05/12 07:30:47;;;;;;;2.60;2.37;;;;;;;11.96;60.48;100096.41;1710650;81;21105;-37
2021/05/12 07:33:13;;;;;;;3.17;2.67;;;;;;;11.91;60.89;100091.19;1696230;81;21056;-42
2021/05/12 07:35:40;;;;;;;2.50;2.30;;;;;;;11.86;61.04;100094.73;1694916;82;21096;-43
2021/05/12 07:38:07;;;;;;;2.60;2.40;;;;;;;11.80;60.98;100096.94;1690043;83;21092;-37
2021/05/12 07:40:34;;;;;;;2.72;2.22;;;;;;;11.75;61.04;100090.86;1698242;83;21128;-37
2021/05/12 07:43:04;;;;;;;3.62;2.60;;;;;;;11.70;61.16;100094.81;1694783;83;21561;-37
2021/05/12 07:45:30;;;;;;;4.60;2.52;;;;;;;11.67;61.21;100094.85;1715850;82;21172;-43
2021/05/12 07:47:57;;;;;;;3.12;2.62;;;;;;;11.62;61.35;100092.70;1693926;83;21913;-37
2021/05/12 07:50:24;;;;;;;3.98;2.83;;;;;;;11.58;61.52;100089.67;1694396;82;21080;-37
2021/05/12 07:52:51;;;;;;;4.22;3.10;;;;;;;11.54;61.69;100089.28;1676726;83;21077;-41
2021/05/12 07:55:17;;;;;;;5.70;2.95;;;;;;;11.51;62.16;100088.42;1696626;83;21588;-45
2021/05/12 07:57:44;;;;;;;3.80;2.52;;;;;;;11.55;62.44;100089.71;1714996;82;21084;-41
2021/05/12 08:00:12;;;;;;;3.10;2.80;;;;;;;11.63;61.90;100078.72;1695832;83;21112;-41
2021/05/12 08:02:39;;;;;;;4.97;2.58;;;;;;;11.77;61.84;100081.66;1696149;83;21088;-42
2021/05/12 08:05:06;;;;;;;3.35;2.90;;;;;;;11.88;61.29;100073.30;1697869;83;21056;-37
2021/05/12 08:07:33;;;;;;;3.02;2.67;;;;;;;12.02;61.01;100069.27;1690844;83;21146;-42
2021/05/12 08:10:00;;;;;;;2.60;2.40;;;;;;;12.14;60.60;100066.07;1710379;82;21116;-37
2021/05/12 08:12:27;;;;;;;2.67;2.47;;;;;;;12.27;60.41;100069.43;1689878;82;21487;-43
2021/05/12 08:14:54;;;;;;;20.52;3.15;;;;;;;12.40;59.74;100059.67;1661705;83;21076;-37
2021/05/12 08:17:23;;;;;;;3.62;2.42;;;;;;;12.48;59.37;100059.16;1690421;83;21769;-36
2021/05/12 08:19:52;;;;;;;8.68;2.70;;;;;;;12.60;58.08;100061.64;1688310;83;21092;-37
2021/05/12 08:22:20;;;;;;;6.60;3.00;;;;;;;12.68;57.72;100057.59;1664039;83;21116;-37
2021/05/12 08:25:29;;;;;;;3.35;2.75;;;;;;;12.78;57.36;100051.34;1711933;82;21092;-37
2021/05/12 08:36:55;;;;;;;2.05;1.85;;;;;;;13.33;53.86;100029.58;1696011;83;21184;-37
2021/05/12 08:44:02;;;;;;;3.08;2.70;;;;;;;13.61;52.97;100018.63;1693390;83;21028;-42
2021/05/12 08:46:32;;;;;;;2.33;2.12;;;;;;;13.54;53.67;100021.37;1711689;82;21465;-42
2021/05/12 08:49:00;;;;;;;2.47;2.27;;;;;;;13.38;54.40;100018.55;1690465;83;21521;-36
2021/05/12 08:51:28;;;;;;;2.75;2.20;;;;;;;13.30;54.68;100027.02;1640258;85;21195;-42
2021/05/12 08:54:05;;;;;;;2.80;2.10;;;;;;;13.24;54.34;100020.55;1666808;83;21564;-42
2021/05/12 08:56:33;;;;;;;9.25;3.90;;;;;;;13.17;54.47;100017.11;1656359;83;21633;-36
2021/05/12 08:59:04;;;;;;;3.90;2.37;;;;;;;13.14;54.44;100016.28;1638668;85;21166;-42
2021/05/12 09:01:33;;;;;;;5.42;2.42;;;;;;;13.13;55.08;100009.30;1621416;85;21872;-42
2021/05/12 09:04:02;;;;;;;3.80;1.70;;;;;;;13.10;55.00;100010.19;1635079;85;21113;-41
2021/05/12 09:06:34;;;;;;;4.45;2.60;;;;;;;13.04;55.59;100011.59;1680758;83;21129;-42
2021/05/12 09:09:06;;;;;;;2.90;2.47;;;;;;;13.01;55.88;100015.14;1686709;83;21716;-37
2021/05/12 09:11:34;;;;;;;10.38;3.00;;;;;;;13.07;55.50;100019.44;1693628;83;21130;-43
2021/05/12 09:14:02;;;;;;;4.78;2.50;;;;;;;13.14;54.98;100017.14;1669326;83;21061;-43
2021/05/12 09:16:30;;;;;;;4.72;2.45;;;;;;;13.20;54.00;100014.42;1709269;82;21805;-43
2021/05/12 09:19:20;;;;;;;4.40;2.33;;;;;;;13.23;53.08;100015.73;1689508;83;21052;-38
2021/05/12 09:26:40;;;;;;;7.12;3.67;;;;;;;13.33;54.34;100019.07;1708458;82;21206;-42
2021/05/12 09:29:57;;;;;;;;;;;;;;;13.38;55.24;100029.06;1669166;83;21060;-43
2021/05/12 09:32:49;;;;;;;7.42;4.00;;;;;;;13.40;55.93;100022.50;1691781;83;20169;-39
2021/05/12 09:36:50;;;;;;;4.83;2.90;;;;;;;13.35;56.15;100025.19;1644061;85;21121;-44
2021/05/12 09:40:50;;;;;;;3.12;2.62;;;;;;;13.31;56.54;100023.49;1666286;83;21907;-43
2021/05/12 09:44:39;;;;;;;3.40;3.08;;;;;;;13.25;57.08;100029.70;1691059;83;21778;-37
2021/05/12 09:47:36;;;;;;;2.67;2.47;;;;;;;13.20;59.06;100031.50;1665327;83;21081;-46
2021/05/12 09:50:23;;;;;;;2.98;2.65;;;;;;;13.14;61.59;100027.65;1699547;82;21044;-38
2021/05/12 09:52:58;;;;;;;3.22;2.90;;;;;;;13.20;62.18;100024.06;1643653;85;21076;-44
2021/05/12 09:55:44;;;;;;;7.22;2.95;;;;;;;13.38;62.90;100021.63;1690832;83;21056;-39
2021/05/12 09:58:17;;;;;;;3.33;2.50;;;;;;;13.55;61.65;100011.72;1683958;83;21096;-37
2021/05/12 10:00:53;;;;;;;2.62;2.42;;;;;;;13.80;60.64;100005.61;1708882;82;21096;-45
2021/05/12 10:03:24;;;;;;;2.87;2.27;;;;;;;14.04;59.90;100002.53;1641978;85;21111;-42
2021/05/12 10:06:07;;;;;;;3.42;2.55;;;;;;;14.24;57.00;99995.55;1663441;83;21715;-39
2021/05/12 10:09:04;;;;;;;3.22;2.33;;;;;;;14.40;56.96;99999.21;1709754;82;21740;-42
2021/05/12 10:11:37;;;;;;;2.42;2.22;;;;;;;14.55;56.14;99998.91;1641784;83;21134;-38
2021/05/12 10:14:09;;;;;;;;;;;;;;;14.63;56.26;99987.33;1663063;83;21116;-36
2021/05/12 10:16:36;;;;;;;3.05;2.75;;;;;;;14.62;55.89;99992.19;1687646;83;20186;-42
2021/05/12 10:19:39;;;;;;;3.30;2.30;;;;;;;14.59;54.65;99988.73;1686492;83;21135;-36
2021/05/12 10:23:01;;;;;;;4.05;2.40;;;;;;;14.52;54.07;99993.27;1683561;83;21209;-37
2021/05/12 10:26:10;;;;;;;3.00;2.30;;;;;;;14.51;54.11;99994.63;1661396;84;21602;-38
2021/05/12 10:29:19;;;;;;;6.85;2.47;;;;;;;14.50;55.60;99994.22;1713414;82;21057;-44
2021/05/12 10:32:27;;;;;;;3.70;2.35;;;;;;;14.27;55.09;99999.45;1698435;83;21140;-38
2021/05/12 10:35:49;;;;;;;2.92;2.37;;;;;;;13.89;57.87;100006.75;1666693;83;21635;-42
2021/05/12 10:38:46;;;;;;;2.55;2.00;;;;;;;13.49;60.84;100011.37;1696259;82;21043;-37
2021/05/12 10:41:46;;;;;;;2.92;2.52;;;;;;;12.94;63.63;100007.39;1675474;83;21131;-41
2021/05/12 10:44:37;;;;;;;2.83;2.62;;;;;;;12.67;64.85;99999.44;1669386;83;21467;-43
2021/05/12 10:47:15;;;;;;;3.33;2.67;;;;;;;12.48;67.35;99996.19;1709899;80;21903;-40
2021/05/12 10:49:39;;;;;;;3.87;3.40;;;;;;;12.43;67.99;99994.06;1690872;83;21328;-37
2021/05/12 10:52:13;;;;;;;5.70;3.40;;;;;;;12.40;69.25;99991.45;1643757;85;21167;-42
2021/05/12 10:54:50;;;;;;;6.87;3.58;;;;;;;12.45;69.97;99985.27;1621600;85;21581;-44
2021/05/12 10:57:48;;;;;;;6.25;4.08;;;;;;;12.51;69.65;99978.63;1676036;84;21702;-36
2021/05/12 11:00:19;;;;;;;3.72;3.37;;;;;;;12.59;69.66;99981.62;1627743;85;21555;-36
2021/05/12 11:03:05;;;;;;;4.00;3.62;;;;;;;12.75;69.33;99976.12;1647070;85;21660;-37
2021/05/12 11:06:00;;;;;;;3.65;3.35;;;;;;;13.00;68.73;99969.22;1652278;84;21161;-38
2021/05/12 11:08:39;;;;;;;2.87;2.65;;;;;;;13.27;68.51;99968.80;1664424;84;21510;-37
2021/05/12 11:11:36;;;;;;;3.52;3.08;;;;;;;13.51;66.06;99963.61;1672397;84;21187;-41
2021/05/12 11:15:02;;;;;;;2.83;2.52;;;;;;;13.74;65.41;99959.27;1648158;84;21193;-43
2021/05/12 11:17:57;;;;;;;2.90;2.52;;;;;;;14.03;64.05;99956.09;1646844;84;21352;-43
2021/05/12 11:20:48;;;;;;;7.40;2.27;;;;;;;14.22;61.96;99954.41;1668157;84;21120;-37
2021/05/12 11:23:15;;;;;;;2.77;1.85;;;;;;;14.45;60.24;99944.72;1637385;84;21648;-37
2021/05/12 11:26:05;;;;;;;2.50;1.80;;;;;;;14.73;59.19;99939.75;1648878;84;21140;-37
2021/05/12 11:29:04;;;;;;;5.15;2.25;;;;;;;14.89;58.36;99943.29;1624361;85;21135;-38
2021/05/12 11:31:57;;;;;;;6.67;3.22;;;;;;;14.95;56.91;99929.56;1693707;83;21118;-37
2021/05/12 11:34:24;;;;;;;2.47;2.27;;;;;;;14.94;54.75;99923.89;1694489;83;21113;-39
2021/05/12 11:36:52;;;;;;;1.85;1.75;;;;;;;15.07;54.76;99920.91;1668523;83;21143;-35
2021/05/12 11:39:27;;;;;;;1.70;1.60;;;;;;;15.18;54.51;99917.56;1658348;83;21909;-42
2021/05/12 11:41:54;;;;;;;2.47;2.08;;;;;;;15.28;53.66;99916.03;1716352;81;21132;-43
2021/05/12 11:44:21;;;;;;;2.50;1.60;;;;;;;15.41;52.25;99910.84;1670030;83;21099;-39
2021/05/12 11:46:48;;;;;;;2.50;1.72;;;;;;;15.60;52.56;99909.94;1669691;83;21126;-37
2021/05/12 11:49:14;;;;;;;2.30;1.57;;;;;;;15.71;52.91;99911.84;1662229;85;21098;-36
2021/05/12 11:51:47;;;;;;;2.02;1.80;;;;;;;15.77;51.37;99903.80;1657669;85;21226;-44
2021/05/12 11:54:24;;;;;;;1.70;1.60;;;;;;;15.84;50.73;99901.84;1639328;85;21067;-36
2021/05/12 11:56:56;;;;;;;3.27;1.45;;;;;;;16.00;50.45;99901.80;1663059;85;21096;-46
2021/05/12 11:59:31;;;;;;;1.77;1.50;;;;;;;16.15;50.20;99900.05;1626641;85;21112;-37
2021/05/12 12:02:07;;;;;;;2.33;1.47;;;;;;;16.25;50.16;99895.38;1657047;85;21175;-37
2021/05/12 12:04:37;;;;;;;1.57;1.47;;;;;;;16.30;49.85;99900.53;1656293;85;21890;-43
2021/05/12 12:07:07;;;;;;;1.75;1.62;;;;;;;16.30;48.24;99892.16;1666185;84;21478;-42
2021/05/12 12:09:34;;;;;;;2.20;2.00;;;;;;;16.31;49.28;99888.59;1661690;85;21086;-43
2021/05/12 12:12:01;;;;;;;2.27;1.98;;;;;;;16.26;48.42;99888.33;1678007;83;21108;-37
2021/05/12 12:14:32;;;;;;;1.52;1.42;;;;;;;16.08;48.26;99887.95;1637370;85;21115;-43
2021/05/12 12:16:59;;;;;;;3.77;1.90;;;;;;;15.93;48.49;99885.74;1661420;84;21203;-43
2021/05/12 12:19:25;;;;;;;1.80;1.70;;;;;;;15.82;47.18;99879.90;1658481;85;21646;-36
2021/05/12 12:21:54;;;;;;;3.58;1.77;;;;;;;15.75;47.87;99875.71;1666266;85;21661;-43
2021/05/12 12:24:26;;;;;;;2.90;1.98;;;;;;;15.83;48.23;99873.71;1659574;85;21418;-37
2021/05/12 12:26:55;;;;;;;2.47;1.82;;;;;;;15.85;47.27;99876.73;1657610;85;21091;-37
2021/05/12 12:29:29;;;;;;;3.25;1.87;;;;;;;15.66;47.73;99881.66;1667474;85;21480;-37
2021/05/12 12:32:06;;;;;;;1.98;1.82;;;;;;;15.46;47.64;99878.65;1663504;84;21101;-37
2021/05/12 12:34:35;;;;;;;1.80;1.70;;;;;;;15.27;48.10;99876.09;1638738;85;21064;-43
2021/05/12 12:37:07;;;;;;;3.37;1.70;;;;;;;15.12;49.25;99874.24;1636167;85;21084;-38
2021/05/12 12:40:12;;;;;;;1.80;1.70;;;;;;;15.13;48.61;99880.38;1666600;85;21075;-37
2021/05/12 12:42:52;;;;;;;2.47;1.82;;;;;;;15.20;49.01;99877.16;1680459;85;21235;-37
2021/05/12 12:45:31;;;;;;;4.90;1.65;;;;;;;15.43;49.72;99870.38;1652841;84;21656;-37
2021/05/12 12:48:04;;;;;;;1.10;1.10;;;;;;;15.61;48.24;99869.48;1651387;85;21069;-42
2021/05/12 12:50:32;;;;;;;2.15;1.25;;;;;;;15.62;46.97;99871.20;1659974;85;21204;-42
2021/05/12 12:53:07;;;;;;;2.95;1.60;;;;;;;15.58;47.29;99869.55;1648381;87;21549;-37
2021/05/12 12:55:35;;;;;;;1.47;1.32;;;;;;;15.54;46.83;99862.62;1644729;85;21097;-42
